• Join FlightAware (Why Join?)
  • Login
  • US Flag 
04:58PM EDT


 

Airport Tracker/Info


-or-


 

Live Flight TrackerFlight Track Log ✈ AAL1459 ✈ 17-May-2013 ✈ KBOS - KORD

Flight Track Log - Related Links

Times and Time Zones

All times are in EDT time to prevent confusion due to time zone crossing. See the AAL1459 flight status page for this flight to view local times or setup timezone preferences in your user account.

Time Position Orientation Groundspeed Altitude Reporting Facility
EDT Latitude Longitude Course Direction KTS MPH feet Rate Location/Type
02:17PM 42.3630 -70.9670 79° East 173 199 1,300  Level FlightAware
02:18PM 42.3700 -70.9280 76° East 221 254 2,100 1,920 Climbing FlightAware
02:18PM 42.3780 -70.8910 74° East 254 292 3,100 2,940 Climbing FlightAware
02:19PM 42.3860 -70.8430 77° East 268 308 4,800 3,360 Climbing FlightAware
02:19PM 42.3980 -70.8050 67° East 262 302 6,200 3,420 Climbing FlightAware
02:19PM 42.4130 -70.7890 38° Northeast 260 299 7,100 3,300 Climbing FlightAware
02:20PM 42.4460 -70.7690 24° Northeast 266 306 8,700 3,120 Climbing FlightAware
02:20PM 42.4760 -70.7750 352° North 262 302 10,000 2,280 Climbing FlightAware
02:21PM 42.5090 -70.7970 334° Northwest 284 327 10,800 1,320 Climbing FlightAware
02:21PM 42.5240 -70.8180 314° West 311 358 11,000 2,460 Climbing FlightAware
02:22PM 42.5600 -70.8820 307° West 321 369 13,100 3,240 Climbing FlightAware
02:23PM 42.6000 -70.9540 307° West 321 369 15,600 2,940 Climbing FlightAware
02:23PM 42.6360 -71.0180 307° West 326 375 17,300 2,700 Climbing FlightAware
02:24PM 42.6740 -71.0850 308° West 331 381 19,200 2,700 Climbing FlightAware
02:25PM 42.7170 -71.1610 308° West 332 382 21,200 2,580 Climbing FlightAware
02:25PM 42.7550 -71.2290 307° West 331 381 22,900 2,220 Climbing FlightAware
02:26PM 42.7850 -71.3160 295° West 338 389 24,400 1,800 Climbing FlightAware
02:27PM 42.7930 -71.4030 277° West 351 404 25,500 1,500 Climbing FlightAware
02:27PM 42.8000 -71.4710 278° West 359 413 26,300 1,620 Climbing FlightAware
02:28PM 42.8120 -71.5960 277° West 365 420 27,800 1,680 Climbing FlightAware
02:29PM 42.8210 -71.6890 278° West 369 425 28,900 1,560 Climbing FlightAware
02:29PM 42.8300 -71.7820 278° West 370 426 29,900 1,680 Climbing FlightAware
02:30PM 42.8400 -71.8860 278° West 364 419 31,300 1,680 Climbing FlightAware
02:31PM 42.8490 -71.9860 277° West 360 414 32,500 1,440 Climbing FlightAware
02:32PM 42.8570 -72.0760 277° West 357 411 33,400 1,320 Climbing FlightAware
02:32PM 42.8650 -72.1650 277° West 355 409 34,300 1,320 Climbing FlightAware
02:33PM 42.8740 -72.2660 277° West 352 405 35,300 1,200 Climbing FlightAware
02:34PM 42.8820 -72.3530 277° West 351 404 36,000 480 Climbing FlightAware
02:34PM 42.8910 -72.4500 277° West 352 405 36,000  Level FlightAware
02:35PM 42.8980 -72.5370 276° West 352 405 36,000  Level FlightAware
02:36PM 42.9060 -72.6270 277° West 352 405 36,000  Level FlightAware
02:36PM 42.9130 -72.7090 277° West 351 404 36,000  Level FlightAware
02:37PM 42.9230 -72.8130 278° West 349 402 36,000  Level FlightAware
02:38PM 42.9300 -72.8990 276° West 349 402 36,000  Level FlightAware
02:39PM 42.9370 -72.9880 276° West 349 402 36,000 480 Level FlightAware
02:39PM 42.9430 -73.0600 277° West 351 404 36,700 840 Climbing FlightAware
02:40PM 42.9390 -73.0060 96° East 37,200 720 Climbing FlightAware
02:40PM 42.9580 -73.2380 276° West 350 403 37,600 360 Climbing FlightAware
02:41PM 42.9660 -73.3430 276° West 353 406 37,800 120 Climbing FlightAware
02:42PM 42.9700 -73.4000 275° West 353 406 37,800 180 Level FlightAware
02:42PM 42.9790 -73.5060 277° West 362 417 38,000 120 Climbing FlightAware
02:43PM 42.9870 -73.6050 276° West 362 417 38,000  Level FlightAware
02:44PM 42.9930 -73.6830 276° West 362 417 38,000  Level FlightAware
02:45PM 43.0030 -73.8140 276° West 363 418 38,000  Level FlightAware
02:45PM 43.0100 -73.9080 276° West 363 418 38,000  Level FlightAware
02:46PM 43.0160 -73.9850 276° West 364 419 38,000  Level FlightAware
02:47PM 43.0250 -74.1020 276° West 365 420 38,000  Level FlightAware
02:47PM 43.0310 -74.1920 275° West 365 420 38,000  Level FlightAware
02:48PM 43.0400 -74.3140 276° West 364 419 38,000  Level FlightAware
02:49PM 43.0490 -74.4380 276° West 363 418 38,000  Level FlightAware
02:50PM 43.0550 -74.5220 276° West 360 414 38,000  Level FlightAware
02:51PM 43.0620 -74.6260 275° West 357 411 38,000  Level FlightAware
02:51PM 43.0690 -74.7270 275° West 356 410 38,000  Level FlightAware
02:52PM 43.0760 -74.8210 276° West 356 410 38,000  Level FlightAware
02:53PM 43.0820 -74.9170 275° West 356 410 38,000  Level FlightAware
02:54PM 43.0880 -75.0110 275° West 355 409 38,000  Level FlightAware
02:54PM 43.0950 -75.1110 276° West 355 409 38,000  Level FlightAware
02:55PM 43.1000 -75.1900 275° West 354 407 38,000  Level FlightAware
02:56PM 43.1060 -75.2870 275° West 354 407 38,000  Level FlightAware
02:56PM 43.1130 -75.3890 275° West 354 407 38,000  Level FlightAware
02:57PM 43.1180 -75.4770 274° West 352 405 38,000  Level FlightAware
02:58PM 43.1230 -75.5670 274° West 349 402 38,000  Level FlightAware
02:58PM 43.1290 -75.6640 275° West 346 398 38,000  Level FlightAware
02:59PM 43.1340 -75.7470 275° West 345 397 38,000  Level FlightAware
03:00PM 43.1400 -75.8390 275° West 344 396 38,000  Level FlightAware
03:01PM 43.1450 -75.9350 274° West 344 396 38,000  Level FlightAware
03:01PM 43.1510 -76.0330 275° West 343 395 38,000  Level FlightAware
03:02PM 43.1550 -76.1140 274° West 344 396 38,000  Level FlightAware
03:03PM 43.1590 -76.1950 274° West 346 398 38,000  Level FlightAware
03:03PM 43.1520 -76.3040 265° West 354 407 38,000  Level FlightAware
03:04PM 43.1440 -76.3950 263° West 354 407 38,000  Level FlightAware
03:05PM 43.1360 -76.4940 264° West 356 410 38,000  Level FlightAware
03:05PM 43.1280 -76.5850 263° West 358 412 38,000  Level FlightAware
03:06PM 43.1200 -76.6720 263° West 358 412 38,000  Level FlightAware
03:07PM 43.1110 -76.7770 263° West 357 411 38,000  Level FlightAware
03:08PM 43.1030 -76.8640 263° West 356 410 38,000  Level FlightAware
03:08PM 43.0960 -76.9470 263° West 355 409 38,000  Level FlightAware
03:09PM 43.0860 -77.0540 263° West 353 406 38,000  Level FlightAware
03:10PM 43.0780 -77.1430 263° West 352 405 38,000  Level FlightAware
03:10PM 43.0700 -77.2310 263° West 350 403 38,000  Level FlightAware
03:11PM 43.0610 -77.3280 263° West 349 402 38,000  Level FlightAware
03:12PM 43.0570 -77.4490 267° West 342 394 38,000  Level FlightAware
03:13PM 43.0580 -77.5440 271° West 345 397 38,000  Level FlightAware
03:13PM 43.0590 -77.6330 271° West 346 398 38,000  Level FlightAware
03:14PM 43.0600 -77.7190 271° West 348 400 38,000  Level FlightAware
03:15PM 43.0610 -77.8190 271° West 349 402 38,000  Level FlightAware
03:15PM 43.0620 -77.9070 271° West 350 403 38,000  Level FlightAware
03:16PM 43.0630 -77.9870 271° West 351 404 38,000  Level FlightAware
03:17PM 43.0640 -78.0960 271° West 353 406 38,000  Level FlightAware
03:18PM 43.0640 -78.1850 270° West 354 407 38,000  Level FlightAware
03:18PM 43.0650 -78.2790 271° West 355 409 38,000  Level FlightAware
03:19PM 43.0650 -78.3680 270° West 353 406 38,000  Level FlightAware
03:20PM 43.0660 -78.4740 271° West 354 407 38,000  Level FlightAware
03:20PM 43.0660 -78.5650 270° West 356 410 38,000  Level FlightAware
03:21PM 43.0670 -78.6540 271° West 356 410 38,000  Level FlightAware
03:22PM 43.0670 -78.7550 270° West 357 411 38,000  Level FlightAware
03:22PM 43.0670 -78.8460 270° West 358 412 38,000  Level FlightAware
03:23PM 43.0670 -78.9330 270° West 358 412 38,000  Level FlightAware
03:24PM 43.0670 -79.0020 270° West 358 412 38,000  Level FlightAware
03:24PM 43.0670 -79.0930 270° West 358 412 38,000  Level FlightAware
03:25PM 43.0670 -79.2300 270° West 358 412 38,000  Level FlightAware
03:26PM 43.0660 -79.3180 269° West 359 413 38,000  Level FlightAware
03:27PM 43.0660 -79.4200 270° West 360 414 38,000  Level FlightAware
03:27PM 43.0660 -79.5110 270° West 361 415 38,000  Level FlightAware
03:28PM 43.0650 -79.6130 269° West 363 418 38,000  Level FlightAware
03:29PM 43.0640 -79.7100 269° West 365 420 38,000  Level FlightAware
03:30PM 43.0640 -79.8010 270° West 367 422 38,000  Level FlightAware
03:30PM 43.0630 -79.9070 269° West 368 423 38,000  Level FlightAware
03:31PM 43.0620 -79.9970 269° West 369 425 38,000  Level FlightAware
03:32PM 43.0610 -80.0920 269° West 369 425 38,000  Level FlightAware
03:32PM 43.0600 -80.1970 269° West 371 427 38,000 -540 Level FlightAware
03:33PM 43.0590 -80.2920 269° West 371 427 37,300 -1,020 Descending FlightAware
03:34PM 43.0580 -80.3930 269° West 369 425 36,600 -960 Descending FlightAware
03:34PM 43.0570 -80.4890 269° West 371 427 36,000 -480 Descending FlightAware
03:35PM 43.0550 -80.5810 268° West 370 426 36,000  Level FlightAware
03:36PM 43.0540 -80.7000 269° West 369 425 36,000  Level FlightAware
03:37PM 43.0520 -80.7970 268° West 369 425 36,000  Level FlightAware
03:37PM 43.0510 -80.8680 269° West 368 423 36,000  Level FlightAware
03:38PM 43.0490 -80.9670 268° West 368 423 36,000  Level FlightAware
03:39PM 43.0480 -81.0560 269° West 369 425 36,000  Level FlightAware
03:39PM 43.0460 -81.1700 269° West 369 425 36,000  Level FlightAware
03:40PM 43.0440 -81.2640 268° West 369 425 36,000  Level FlightAware
03:41PM 43.0420 -81.3450 268° West 369 425 36,000  Level FlightAware
03:41PM 43.0390 -81.4790 268° West 370 426 36,000  Level FlightAware
03:42PM 43.0370 -81.5750 268° West 372 428 36,000  Level FlightAware
03:43PM 43.0350 -81.6770 268° West 373 429 36,000  Level FlightAware
03:44PM 43.0320 -81.7700 268° West 375 432 36,000  Level FlightAware
03:44PM 43.0300 -81.8660 268° West 375 432 36,000  Level FlightAware
03:45PM 43.0270 -81.9740 268° West 376 433 36,000  Level FlightAware
03:46PM 43.0240 -82.0820 268° West 378 435 36,000  Level FlightAware
03:46PM 43.0220 -82.1710 268° West 379 436 36,000  Level FlightAware
03:47PM 43.0190 -82.2770 268° West 381 438 36,000  Level FlightAware
03:48PM 43.0150 -82.3870 267° West 381 438 36,000  Level FlightAware
03:49PM 43.0130 -82.4770 268° West 381 438 36,000  Level FlightAware
03:49PM 43.0090 -82.6030 268° West 380 437 36,000  Level FlightAware
03:50PM 43.0070 -82.6700 268° West 380 437 36,000  Level FlightAware
03:51PM 43.0020 -82.7950 267° West 380 437 36,000  Level FlightAware
03:51PM 43.0000 -82.8780 268° West 380 437 36,000  Level FlightAware
03:52PM 42.9960 -82.9880 267° West 380 437 36,000  Level FlightAware
03:53PM 42.9930 -83.0660 267° West 381 438 36,000  Level FlightAware
03:54PM 42.9880 -83.2120 267° West 382 440 36,000  Level FlightAware
03:54PM 42.9840 -83.3080 267° West 383 441 36,000  Level FlightAware
03:55PM 42.9740 -83.4090 262° West 390 449 36,000  Level FlightAware
03:56PM 42.9460 -83.5080 249° West 392 451 36,000  Level FlightAware
03:56PM 42.9210 -83.5980 249° West 393 452 36,000  Level FlightAware
03:57PM 42.8920 -83.7010 249° West 394 453 36,000  Level FlightAware
03:58PM 42.8680 -83.7910 250° West 393 452 36,000  Level FlightAware
03:58PM 42.8660 -83.8200 265° West 389 448 36,000 -480 Level FlightAware
03:59PM 42.8680 -83.9230 272° West 385 443 35,600 -780 Descending FlightAware
03:59PM 42.8670 -84.0340 269° West 393 452 34,900 -960 Descending FlightAware
04:00PM 42.8650 -84.1350 268° West 411 473 34,300 -900 Descending FlightAware
04:01PM 42.8630 -84.2440 269° West 414 476 33,700 -960 Descending FlightAware
04:01PM 42.8610 -84.3560 269° West 413 475 33,000 -1,020 Descending FlightAware
04:02PM 42.8590 -84.4680 269° West 420 483 32,300 -720 Descending FlightAware
04:03PM 42.8570 -84.5830 269° West 423 487 32,000 -240 Descending FlightAware
04:04PM 42.8550 -84.6900 269° West 423 487 32,000  Level FlightAware
04:04PM 42.8520 -84.7950 268° West 423 487 32,000  Level FlightAware
04:05PM 42.8490 -84.9190 268° West 424 488 32,000  Level FlightAware
04:06PM 42.8380 -85.0260 262° West 426 490 32,000  Level FlightAware
04:06PM 42.8260 -85.1410 262° West 426 490 32,000 -120 Level FlightAware
04:07PM 42.8140 -85.2480 261° West 426 490 31,900 -540 Descending FlightAware
04:08PM 42.8020 -85.3550 261° West 429 494 31,300 -1,020 Descending FlightAware
04:08PM 42.7890 -85.4790 262° West 431 496 30,500 -1,020 Descending FlightAware
04:09PM 42.7720 -85.5800 257° West 437 503 29,900 -1,020 Descending FlightAware
04:10PM 42.7500 -85.7020 256° West 438 504 29,100 -660 Descending FlightAware
04:11PM 42.7310 -85.8060 256° West 436 502 29,000 -120 Descending FlightAware
04:11PM 42.7110 -85.9150 256° West 440 506 29,000 -1,380 Level FlightAware
04:12PM 42.6890 -86.0400 257° West 446 513 27,100 -2,520 Descending FlightAware
04:13PM 42.6700 -86.1390 255° West 433 498 25,500 -2,160 Descending FlightAware
04:13PM 42.6480 -86.2580 256° West 417 480 24,100 -1,740 Descending FlightAware
04:14PM 42.6290 -86.3590 256° West 413 475 23,100 -1,800 Descending FlightAware
04:15PM 42.6110 -86.4600 256° West 409 471 21,700 -2,160 Descending FlightAware
04:15PM 42.5890 -86.5730 255° West 394 453 20,100 -2,100 Descending FlightAware
04:16PM 42.5720 -86.6660 256° West 386 444 18,800 -1,920 Descending FlightAware
04:17PM 42.5500 -86.7640 253° West 383 441 17,400 -1,980 Descending FlightAware
04:18PM 42.5250 -86.8580 250° West 378 435 16,000 -1,980 Descending FlightAware
04:18PM 42.4980 -86.9550 249° West 367 422 14,600 -1,920 Descending FlightAware
04:19PM 42.4740 -87.0430 250° West 362 417 13,300 -1,860 Descending FlightAware
04:20PM 42.4550 -87.1110 249° West 354 407 12,300 -1,740 Descending FlightAware
04:20PM 42.4260 -87.2180 250° West 345 397 10,900 -1,560 Descending FlightAware
04:21PM 42.4050 -87.2950 250° West 336 387 10,000 -900 Descending FlightAware
04:22PM 42.3890 -87.3540 250° West 330 380 9,900 -120 Descending FlightAware
04:22PM 42.3750 -87.4040 249° West 329 379 9,900  Level FlightAware
04:22PM 42.3610 -87.4550 250° West 329 379 9,900  Level FlightAware
04:23PM 42.3430 -87.5180 249° West 329 379 9,900  Level FlightAware
04:23PM 42.3150 -87.5590 227° Southwest 326 375 9,900  Level FlightAware
04:24PM 42.2890 -87.5870 219° Southwest 297 342 9,900 -180 Level FlightAware
04:24PM 42.2680 -87.6090 218° Southwest 277 319 9,800 -840 Descending FlightAware
04:25PM 42.2430 -87.6360 219° Southwest 271 312 9,300 -1,440 Descending FlightAware
04:25PM 42.2140 -87.6660 217° Southwest 270 311 8,500 -1,440 Descending FlightAware
04:25PM 42.1900 -87.6910 218° Southwest 267 307 8,000 -660 Descending FlightAware
04:26PM 42.1600 -87.7230 218° Southwest 265 305 7,900 -120 Descending FlightAware
04:26PM 42.1360 -87.7480 218° Southwest 263 303 7,900  Level FlightAware
04:27PM 42.1220 -87.7630 218° Southwest 263 303 7,900  Level FlightAware
04:27PM 42.0960 -87.7960 223° Southwest 269 310 7,900 -180 Level FlightAware
04:27PM 42.0910 -87.8210 255° West 273 314 7,800 -900 Descending FlightAware
04:28PM 42.0920 -87.8640 272° West 275 316 7,300 -1,020 Descending FlightAware
04:28PM 42.0920 -87.9130 270° West 271 312 6,900 -600 Descending FlightAware
04:28PM 42.0920 -87.9280 270° West 262 302 6,900  Level FlightAware
04:29PM 42.0920 -87.9710 270° West 236 272 6,900  Level FlightAware
04:29PM 42.0920 -88.0170 270° West 231 266 6,900  Level FlightAware
04:30PM 42.0920 -88.0550 270° West 229 264 6,900  Level FlightAware
04:30PM 42.0920 -88.0970 270° West 228 262 6,900  Level FlightAware
04:31PM 42.0920 -88.1390 270° West 229 264 6,900  Level FlightAware
04:31PM 42.0910 -88.1680 267° West 229 264 6,900  Level FlightAware
04:32PM 42.0910 -88.2200 270° West 220 253 6,900  Level FlightAware
04:32PM 42.0910 -88.2700 270° West 186 214 6,900  Level FlightAware
04:33PM 42.0910 -88.2970 270° West 184 212 6,900 -240 Level FlightAware
04:33PM 42.0910 -88.3330 270° West 186 214 6,700 -720 Descending FlightAware
04:34PM 42.0910 -88.3490 270° West 187 215 6,400 -1,080 Descending FlightAware
04:34PM 42.0880 -88.3840 263° West 181 208 5,900 -780 Descending FlightAware
04:34PM 42.0840 -88.3890 223° Southwest 176 203 5,900  Level FlightAware
04:35PM 42.0720 -88.3940 197° South 172 198 5,900 -720 Level FlightAware
04:35PM 42.0460 -88.3910 175° South 177 204 5,400 -1,020 Descending FlightAware
04:36PM 42.0220 -88.3770 157° South 182 209 4,900 -600 Descending FlightAware
04:36PM 42.0100 -88.3600 134° Southeast 182 209 4,900  Level FlightAware
04:36PM 42.0040 -88.3430 115° Southeast 181 208 4,900  Level FlightAware
04:37PM 41.9950 -88.3160 114° Southeast 182 209 4,900  Level FlightAware
04:37PM 41.9840 -88.2850 116° Southeast 182 209 4,900  Level FlightAware
04:37PM 41.9790 -88.2700 114° Southeast 182 209 4,900  Level FlightAware
04:38PM 41.9700 -88.2440 115° Southeast 181 208 4,900 -360 Level FlightAware
04:38PM 41.9680 -88.2110 95° East 186 214 4,600 -840 Descending FlightAware
04:39PM 41.9680 -88.1770 90° East 180 207 4,100 -1,020 Descending FlightAware
04:39PM 41.9680 -88.1500 90° East 177 204 3,700 -840 Descending FlightAware
04:40PM 41.9680 -88.1240 90° East 176 203 3,400 -900 Descending FlightAware
04:40PM 41.9690 -88.0900 88° East 172 198 2,900 -1,020 Descending FlightAware
04:41PM 41.9690 -88.0600 90° East 171 197 2,400 -1,020 Descending FlightAware
04:41PM 41.9690 -88.0320 90° East 153 176 2,000 -780 Descending FlightAware
04:41PM 41.9690 -88.0220 90° East 143 165 1,900 -720 Descending FlightAware
04:42PM 41.9690 -87.9820 90° East 141 162 1,300 -780 Descending FlightAware
04:42PM 41.9690 -87.9660 90° East 144 166 1,100 -720 Descending FlightAware
04:43PM 41.9690 -87.9500 90° East 144 166 900 -840 Descending FlightAware
04:43PM 41.9690 -87.9220 90° East 140 161 500 -480 Descending FlightAware
04:44PM 41.9690 -87.9020 90° East 140 161 500  Level FlightAware